Time;durP1;ratioP1;P1;durP2;ratioP2;P2;SDS_P1;SDS_P2;PMS_P1;PMS_P2;Temp;Humidity;BMP_temperature;BMP_pressure;BME280_temperature;BME280_humidity;BME280_pressure;Samples;Min_cycle;Max_cycle;Signal;HPM_P1;HPM_P2
2023/09/15 00:00:43;;;;;;;5.22;4.72;;;;;;;14.88;100.00;95962.56;4988000;28;20056;-69
2023/09/15 00:03:08;;;;;;;4.90;4.50;;;;;;;14.85;100.00;95969.03;4986291;28;20034;-69
2023/09/15 00:05:34;;;;;;;8.13;5.07;;;;;;;14.88;100.00;95966.03;4978002;28;20616;-69
2023/09/15 00:08:04;;;;;;;6.25;4.90;;;;;;;14.87;100.00;95960.91;4984578;28;20054;-69
2023/09/15 00:10:34;;;;;;;5.30;4.80;;;;;;;14.83;100.00;95960.41;4983166;28;20475;-69
2023/09/15 00:13:00;;;;;;;5.53;5.00;;;;;;;14.77;100.00;95958.41;4983996;28;20041;-69
2023/09/15 00:15:26;;;;;;;7.78;4.80;;;;;;;14.74;100.00;95954.25;4987821;28;20027;-69
2023/09/15 00:17:51;;;;;;;5.22;4.68;;;;;;;14.71;100.00;95943.16;4987989;28;20026;-69
2023/09/15 00:20:17;;;;;;;6.38;5.40;;;;;;;14.71;100.00;95943.16;4989603;28;20030;-69
2023/09/15 00:22:49;;;;;;;6.20;5.65;;;;;;;14.75;100.00;95944.50;4982724;28;20081;-69
2023/09/15 00:25:20;;;;;;;5.40;5.00;;;;;;;14.66;100.00;95950.72;4989060;28;20050;-69
2023/09/15 00:27:47;;;;;;;5.38;4.97;;;;;;;14.63;100.00;95948.38;5017564;28;20083;-69
2023/09/15 00:30:15;;;;;;;5.68;4.95;;;;;;;14.62;100.00;95947.56;4982818;28;20028;-69
2023/09/15 00:32:40;;;;;;;5.70;5.05;;;;;;;14.64;100.00;95947.41;4976418;28;20463;-69
2023/09/15 00:35:06;;;;;;;5.10;4.70;;;;;;;14.60;100.00;95946.91;4980401;28;20031;-69
2023/09/15 00:37:31;;;;;;;7.05;5.30;;;;;;;14.58;100.00;95955.00;4989958;28;20121;-69
2023/09/15 00:39:57;;;;;;;5.70;5.18;;;;;;;14.57;100.00;95950.69;4985664;28;20034;-69
2023/09/15 00:42:23;;;;;;;5.50;5.20;;;;;;;14.60;100.00;95953.03;4985145;28;20548;-69
2023/09/15 00:44:48;;;;;;;5.75;5.22;;;;;;;14.57;100.00;95945.41;4981085;28;20663;-69
2023/09/15 00:47:15;;;;;;;5.82;5.32;;;;;;;14.54;100.00;95952.84;4983688;28;20031;-69
2023/09/15 00:49:41;;;;;;;5.68;4.75;;;;;;;14.54;100.00;95951.03;4989075;28;20033;-69
2023/09/15 00:52:07;;;;;;;5.65;5.15;;;;;;;14.53;100.00;95949.38;4985939;28;20112;-69
2023/09/15 00:54:32;;;;;;;6.80;5.15;;;;;;;14.50;100.00;95949.69;4988810;28;20058;-69
2023/09/15 00:56:59;;;;;;;5.97;5.47;;;;;;;14.48;100.00;95951.69;4964601;28;20026;-69
2023/09/15 00:59:25;;;;;;;7.00;5.57;;;;;;;14.47;100.00;95950.84;4985507;28;21054;-69
2023/09/15 01:01:53;;;;;;;5.88;5.50;;;;;;;14.42;100.00;95944.34;4989505;28;20026;-69
2023/09/15 01:04:18;;;;;;;7.18;5.90;;;;;;;14.41;100.00;95946.19;4986224;28;20034;-69
2023/09/15 01:06:49;;;;;;;6.78;6.28;;;;;;;14.40;100.00;95947.16;5006704;28;20540;-69
2023/09/15 01:09:14;;;;;;;6.03;5.45;;;;;;;14.37;100.00;95939.53;4989683;28;20118;-69
2023/09/15 01:11:40;;;;;;;5.93;5.32;;;;;;;14.38;100.00;95948.31;4985593;28;20061;-69
2023/09/15 01:14:05;;;;;;;5.57;5.18;;;;;;;14.38;100.00;95943.84;4985755;28;20133;-69
2023/09/15 01:16:36;;;;;;;5.80;5.32;;;;;;;14.38;100.00;95945.66;4983307;28;20022;-69
2023/09/15 01:19:19;;;;;;;5.60;5.20;;;;;;;14.38;100.00;95948.31;4978333;28;20160;-69
2023/09/15 01:21:50;;;;;;;5.97;5.57;;;;;;;14.32;100.00;95949.78;4986270;28;20109;-69
2023/09/15 01:24:45;;;;;;;6.10;5.50;;;;;;;14.27;100.00;95949.41;4986778;28;20157;-69
2023/09/15 01:27:29;;;;;;;6.15;5.75;;;;;;;14.21;100.00;95948.22;4993122;28;20050;-69
2023/09/15 01:29:57;;;;;;;5.90;5.35;;;;;;;14.14;100.00;95950.66;4974072;28;20620;-69
2023/09/15 01:32:24;;;;;;;7.75;5.68;;;;;;;14.15;100.00;95949.72;4983895;28;20619;-68
2023/09/15 01:34:51;;;;;;;7.13;5.68;;;;;;;14.16;100.00;95953.19;4985637;28;20184;-69
2023/09/15 01:37:17;;;;;;;6.00;5.57;;;;;;;14.16;100.00;95953.19;4986964;28;20031;-68
2023/09/15 01:39:43;;;;;;;6.13;5.63;;;;;;;14.12;100.00;95952.66;4985383;28;20109;-69
2023/09/15 01:42:09;;;;;;;6.15;5.70;;;;;;;14.10;100.00;95948.53;4978294;28;20031;-68
2023/09/15 01:44:34;;;;;;;10.05;6.40;;;;;;;14.09;100.00;95952.16;4980621;28;20062;-69
2023/09/15 01:46:59;;;;;;;6.40;5.90;;;;;;;14.06;100.00;95945.34;4977194;28;20031;-69
2023/09/15 01:49:27;;;;;;;5.75;5.32;;;;;;;14.03;100.00;95949.13;4981406;28;20027;-69
2023/09/15 01:51:54;;;;;;;7.07;5.80;;;;;;;14.02;100.00;95946.66;4992589;28;20106;-68
2023/09/15 01:54:20;;;;;;;6.25;5.65;;;;;;;14.00;100.00;95946.81;4979129;28;20034;-68
2023/09/15 01:56:48;;;;;;;6.03;5.40;;;;;;;13.99;100.00;95942.50;4984785;28;20035;-69
2023/09/15 01:59:13;;;;;;;6.25;5.65;;;;;;;13.97;100.00;95939.19;4987448;28;20387;-69
2023/09/15 02:01:38;;;;;;;6.47;6.05;;;;;;;13.98;100.00;95940.84;4989787;28;20034;-69
2023/09/15 02:04:04;;;;;;;6.38;5.88;;;;;;;13.95;100.00;95937.69;4983992;28;20037;-69
2023/09/15 02:06:30;;;;;;;6.60;6.00;;;;;;;13.94;100.00;95936.03;4984158;28;20034;-68
2023/09/15 02:08:56;;;;;;;6.55;5.97;;;;;;;13.94;100.00;95934.19;4980227;28;20023;-68
2023/09/15 02:11:22;;;;;;;8.50;5.70;;;;;;;13.93;100.00;95929.09;4982058;28;20382;-69
2023/09/15 02:13:48;;;;;;;5.53;5.00;;;;;;;13.91;100.00;95926.59;4987996;28;20109;-69
2023/09/15 02:16:13;;;;;;;6.10;5.60;;;;;;;13.88;100.00;95925.06;4966573;28;20478;-69
2023/09/15 02:18:40;;;;;;;6.15;5.65;;;;;;;13.87;100.00;95927.88;4962052;28;20031;-69
2023/09/15 02:21:06;;;;;;;6.07;5.57;;;;;;;13.86;100.00;95920.94;4984499;28;20073;-68
2023/09/15 02:23:32;;;;;;;6.13;5.57;;;;;;;13.86;100.00;95924.41;4977113;28;20077;-69
2023/09/15 02:26:02;;;;;;;5.97;5.57;;;;;;;13.86;100.00;95926.22;4979725;28;20037;-68
2023/09/15 02:28:28;;;;;;;5.75;5.15;;;;;;;13.81;100.00;95931.13;4988394;28;20165;-68
2023/09/15 02:30:55;;;;;;;8.88;5.47;;;;;;;13.80;100.00;95932.13;4986530;28;20066;-68
2023/09/15 02:33:22;;;;;;;6.50;5.78;;;;;;;13.79;100.00;95928.66;4979328;28;20065;-68
2023/09/15 02:35:48;;;;;;;5.93;5.43;;;;;;;13.82;100.00;95933.63;4982471;28;20080;-68
2023/09/15 02:38:13;;;;;;;6.93;5.50;;;;;;;13.82;100.00;95931.00;4977726;28;20037;-68
2023/09/15 02:40:38;;;;;;;7.25;5.95;;;;;;;13.83;100.00;95931.84;4981255;28;20476;-68
2023/09/15 02:43:04;;;;;;;5.90;5.40;;;;;;;13.82;100.00;95928.34;4991101;28;20057;-69
2023/09/15 02:45:33;;;;;;;6.30;5.80;;;;;;;13.81;100.00;95936.44;4982778;28;20058;-68
2023/09/15 02:47:58;;;;;;;5.35;5.05;;;;;;;13.79;100.00;95925.16;4986841;28;20042;-68
2023/09/15 02:50:23;;;;;;;5.75;5.35;;;;;;;13.75;100.00;95929.97;4984592;28;20044;-68
2023/09/15 02:52:49;;;;;;;6.35;5.85;;;;;;;13.71;100.00;95925.97;4986245;28;20030;-68
2023/09/15 02:55:14;;;;;;;6.15;5.68;;;;;;;13.66;100.00;95921.16;4996711;28;20070;-69
2023/09/15 02:57:40;;;;;;;6.47;5.78;;;;;;;13.69;100.00;95922.63;4988518;28;20030;-68
2023/09/15 03:00:07;;;;;;;6.20;5.55;;;;;;;13.70;100.00;95929.59;4986902;28;20431;-68
2023/09/15 03:02:33;;;;;;;6.30;5.82;;;;;;;13.68;100.00;95923.63;4980530;28;20094;-68
2023/09/15 03:04:58;;;;;;;5.25;4.95;;;;;;;13.68;100.00;95924.47;4990402;28;20027;-68
2023/09/15 03:07:24;;;;;;;7.88;6.13;;;;;;;13.70;100.00;95917.19;4987650;28;20018;-68
2023/09/15 03:09:53;;;;;;;7.57;5.40;;;;;;;13.70;100.00;95919.84;4987404;28;20113;-69
2023/09/15 03:12:18;;;;;;;5.60;5.20;;;;;;;13.71;100.00;95918.84;4991707;28;20036;-69
2023/09/15 03:14:44;;;;;;;7.95;5.57;;;;;;;13.75;100.00;95916.75;4995356;28;20671;-68
2023/09/15 03:17:10;;;;;;;5.20;4.82;;;;;;;13.71;100.00;95902.97;4984432;28;20023;-69
2023/09/15 03:19:35;;;;;;;5.50;5.00;;;;;;;13.67;100.00;95903.44;4987030;28;20069;-68
2023/09/15 03:22:00;;;;;;;5.90;5.50;;;;;;;13.63;100.00;95902.09;4983921;28;20023;-68
2023/09/15 03:24:26;;;;;;;5.60;5.20;;;;;;;13.59;100.00;95904.22;4979512;28;20616;-68
2023/09/15 03:26:51;;;;;;;6.28;5.05;;;;;;;13.57;100.00;95907.03;5009939;28;20050;-68
2023/09/15 03:29:16;;;;;;;6.57;5.43;;;;;;;13.54;100.00;95906.50;4980662;28;20480;-68
2023/09/15 03:31:42;;;;;;;5.20;4.80;;;;;;;13.53;100.00;95905.69;4988159;28;20027;-69
2023/09/15 03:34:07;;;;;;;5.85;5.47;;;;;;;13.48;100.00;95907.94;4983015;28;20018;-68
2023/09/15 03:36:33;;;;;;;5.45;5.15;;;;;;;13.44;100.00;95910.09;4989586;28;20042;-68
2023/09/15 03:38:59;;;;;;;6.07;5.60;;;;;;;13.45;100.00;95911.75;4982410;28;20033;-68
2023/09/15 03:41:27;;;;;;;5.43;5.07;;;;;;;13.43;100.00;95921.66;4981545;28;20030;-68
2023/09/15 03:43:52;;;;;;;5.55;5.15;;;;;;;13.42;100.00;95919.13;4981588;28;20022;-68
2023/09/15 03:46:18;;;;;;;6.28;5.70;;;;;;;13.39;100.00;95928.22;4985382;28;20072;-69
2023/09/15 03:48:43;;;;;;;5.82;5.43;;;;;;;13.40;100.00;95918.44;4981690;28;20022;-68
2023/09/15 03:51:09;;;;;;;8.70;5.00;;;;;;;13.39;100.00;95928.22;4994878;28;20102;-68
2023/09/15 03:53:34;;;;;;;5.32;4.85;;;;;;;13.37;100.00;95932.78;4987986;28;20489;-69
2023/09/15 03:56:00;;;;;;;5.57;5.10;;;;;;;13.33;100.00;95928.81;4977236;28;20487;-69
2023/09/15 03:58:25;;;;;;;5.28;4.97;;;;;;;13.32;100.00;95929.78;4985128;28;20499;-68
2023/09/15 04:00:51;;;;;;;5.50;5.00;;;;;;;13.32;100.00;95930.63;4982607;28;20022;-68
2023/09/15 04:03:16;;;;;;;5.75;5.30;;;;;;;13.33;100.00;95927.00;4991842;28;20390;-69
2023/09/15 04:05:42;;;;;;;6.47;4.72;;;;;;;13.31;100.00;95925.47;4991791;28;20453;-69
2023/09/15 04:08:07;;;;;;;5.78;4.63;;;;;;;13.31;100.00;95926.31;4991194;28;20014;-68
2023/09/15 04:10:33;;;;;;;5.47;5.00;;;;;;;13.32;100.00;95922.69;4993024;28;20067;-69
2023/09/15 04:12:58;;;;;;;5.32;4.95;;;;;;;13.33;100.00;95923.50;4988704;28;20101;-69
2023/09/15 04:15:24;;;;;;;6.30;4.85;;;;;;;13.32;100.00;95937.72;4983480;28;20054;-69
2023/09/15 04:17:49;;;;;;;5.07;4.78;;;;;;;13.29;100.00;95938.03;4980461;28;20383;-68
2023/09/15 04:20:17;;;;;;;7.20;4.90;;;;;;;13.25;100.00;95937.50;4983214;28;20064;-68
2023/09/15 04:22:43;;;;;;;5.18;4.88;;;;;;;13.24;100.00;95940.31;4991808;28;20022;-68
2023/09/15 04:25:11;;;;;;;6.45;5.22;;;;;;;13.22;100.00;95932.50;4992705;28;20060;-68
2023/09/15 04:27:36;;;;;;;5.32;4.93;;;;;;;13.22;100.00;95937.81;4992567;28;20038;-68
2023/09/15 04:30:02;;;;;;;5.63;5.15;;;;;;;13.20;100.00;95936.31;4988956;28;20029;-68
2023/09/15 04:32:28;;;;;;;6.82;5.10;;;;;;;13.20;100.00;95936.31;4982029;28;20106;-68
2023/09/15 04:34:54;;;;;;;6.97;5.18;;;;;;;13.18;100.00;95934.66;4989625;28;20030;-68
2023/09/15 04:37:20;;;;;;;6.03;5.47;;;;;;;13.13;100.00;95926.31;4992096;28;20383;-68
2023/09/15 04:39:49;;;;;;;5.47;5.07;;;;;;;13.13;100.00;95930.78;4991744;28;20126;-68
2023/09/15 04:42:15;;;;;;;6.07;5.57;;;;;;;13.14;100.00;95916.59;4991278;28;20062;-69
2023/09/15 04:44:40;;;;;;;5.20;4.82;;;;;;;13.15;100.00;95913.81;4992388;28;20052;-68
2023/09/15 04:47:06;;;;;;;5.30;4.82;;;;;;;13.16;100.00;95923.41;4988461;28;20110;-70
2023/09/15 04:49:31;;;;;;;6.10;5.10;;;;;;;13.14;100.00;95916.59;4986392;28;20034;-69
2023/09/15 04:51:57;;;;;;;6.88;5.25;;;;;;;13.09;100.00;95917.03;4989090;28;20604;-68
2023/09/15 04:54:22;;;;;;;5.70;5.20;;;;;;;13.10;100.00;95915.25;4990890;28;20033;-68
2023/09/15 04:56:47;;;;;;;5.00;4.70;;;;;;;13.05;100.00;95913.03;4991664;28;20023;-69
2023/09/15 04:59:15;;;;;;;5.60;5.13;;;;;;;13.01;100.00;95914.34;4992205;28;20079;-68
2023/09/15 05:01:42;;;;;;;5.45;4.95;;;;;;;12.99;100.00;95916.31;4983848;28;20117;-68
2023/09/15 05:04:08;;;;;;;6.22;4.75;;;;;;;12.99;100.00;95918.94;4974351;28;20027;-68
2023/09/15 05:06:33;;;;;;;6.65;6.15;;;;;;;12.96;100.00;95925.34;4977524;28;20927;-68
2023/09/15 05:08:59;;;;;;;6.72;6.13;;;;;;;12.95;100.00;95928.16;4974032;28;20026;-68
2023/09/15 05:11:24;;;;;;;7.00;6.30;;;;;;;12.97;100.00;95923.56;4982905;28;20031;-68
2023/09/15 05:13:49;;;;;;;5.70;5.30;;;;;;;12.95;100.00;95925.53;4976417;28;20076;-68
2023/09/15 05:16:16;;;;;;;6.20;5.60;;;;;;;12.95;100.00;95922.88;4986011;28;20027;-68
2023/09/15 05:18:41;;;;;;;5.38;4.97;;;;;;;12.97;100.00;95921.72;4984326;28;20030;-68
2023/09/15 05:21:07;;;;;;;5.30;4.95;;;;;;;13.00;100.00;95926.72;4989948;28;20086;-67
2023/09/15 05:23:32;;;;;;;5.40;4.60;;;;;;;13.02;100.00;95923.94;4991826;28;20109;-68
2023/09/15 05:25:58;;;;;;;8.23;6.45;;;;;;;13.03;100.00;95926.41;4988454;28;20080;-68
2023/09/15 05:28:23;;;;;;;6.97;6.00;;;;;;;13.03;100.00;95925.59;4986855;28;20091;-68
2023/09/15 05:30:49;;;;;;;5.65;5.15;;;;;;;13.01;100.00;95927.56;4988254;28;20026;-67
2023/09/15 05:33:16;;;;;;;5.53;5.03;;;;;;;13.00;100.00;95925.91;4987991;28;20018;-67
2023/09/15 05:35:41;;;;;;;7.90;5.00;;;;;;;13.01;100.00;95925.72;4986396;28;20033;-67
2023/09/15 05:38:07;;;;;;;5.60;5.20;;;;;;;13.03;100.00;95925.59;4988551;28;20606;-66
2023/09/15 05:40:33;;;;;;;9.27;5.30;;;;;;;12.98;100.00;95925.22;4989464;28;20042;-67
2023/09/15 05:42:58;;;;;;;5.95;5.38;;;;;;;12.98;100.00;95922.56;4980341;28;20029;-66
2023/09/15 05:45:24;;;;;;;6.57;5.35;;;;;;;13.01;100.00;95919.63;4987658;28;20038;-67
2023/09/15 05:47:49;;;;;;;5.93;5.43;;;;;;;13.04;100.00;95919.31;4991255;28;20034;-68
2023/09/15 05:50:15;;;;;;;6.05;5.50;;;;;;;13.07;100.00;95920.84;4978292;28;20084;-67
2023/09/15 05:52:40;;;;;;;11.32;6.10;;;;;;;13.09;100.00;95921.50;4991308;28;20037;-68
2023/09/15 05:55:06;;;;;;;6.30;5.80;;;;;;;13.10;100.00;95916.06;4987545;28;20034;-67
2023/09/15 05:57:32;;;;;;;6.25;5.68;;;;;;;13.11;100.00;95933.56;4978480;28;20399;-67
2023/09/15 05:59:57;;;;;;;5.78;5.18;;;;;;;13.15;100.00;95934.97;4986006;28;20023;-67
2023/09/15 06:02:23;;;;;;;5.95;5.47;;;;;;;13.17;100.00;95940.06;4989381;28;20022;-67
2023/09/15 06:04:50;;;;;;;6.32;5.72;;;;;;;13.17;100.00;95933.00;4979850;28;20030;-67
2023/09/15 06:07:17;;;;;;;6.18;5.70;;;;;;;13.18;100.00;95936.44;4977505;28;20055;-66
2023/09/15 06:09:43;;;;;;;8.10;5.93;;;;;;;13.17;100.00;95935.63;4987895;28;20788;-67
2023/09/15 06:12:08;;;;;;;7.72;6.15;;;;;;;13.18;100.00;95934.66;4986218;28;20044;-66
2023/09/15 06:14:35;;;;;;;6.05;5.55;;;;;;;13.24;100.00;95935.03;4990492;28;20504;-68
2023/09/15 06:17:02;;;;;;;9.77;6.05;;;;;;;13.25;100.00;95926.09;4990206;28;20125;-69
2023/09/15 06:19:28;;;;;;;8.38;5.95;;;;;;;13.27;100.00;95924.97;4988243;28;20037;-68
2023/09/15 06:21:53;;;;;;;6.70;6.15;;;;;;;13.29;100.00;95919.53;4979608;28;20504;-68
2023/09/15 06:24:19;;;;;;;8.93;6.22;;;;;;;13.30;100.00;95916.72;4987985;28;20031;-68
2023/09/15 06:26:44;;;;;;;7.72;5.82;;;;;;;13.30;100.00;95914.09;4976690;28;20026;-69
2023/09/15 06:29:12;;;;;;;9.95;6.18;;;;;;;13.31;100.00;95917.56;4995695;28;20567;-68
2023/09/15 06:31:38;;;;;;;7.50;6.40;;;;;;;13.34;100.00;95922.53;4984064;28;20410;-68
2023/09/15 06:34:03;;;;;;;12.25;6.47;;;;;;;13.36;100.00;95927.69;4992387;28;20113;-68
2023/09/15 06:36:29;;;;;;;6.93;6.32;;;;;;;13.37;100.00;95916.13;4989003;28;20550;-68
2023/09/15 06:38:54;;;;;;;6.95;6.40;;;;;;;13.37;100.00;95922.22;4991863;28;20034;-68
2023/09/15 06:41:20;;;;;;;7.55;6.75;;;;;;;13.38;100.00;95909.84;4985585;28;20023;-68
2023/09/15 06:43:45;;;;;;;7.18;6.57;;;;;;;13.41;100.00;95917.47;4975701;28;20022;-68
2023/09/15 06:46:11;;;;;;;7.20;6.40;;;;;;;13.40;100.00;95924.56;4981030;28;20483;-68
2023/09/15 06:48:36;;;;;;;10.38;7.03;;;;;;;13.41;100.00;95920.09;4981441;28;20023;-68
2023/09/15 06:51:01;;;;;;;7.88;6.63;;;;;;;13.47;100.00;95922.16;4992577;28;20638;-68
2023/09/15 06:53:27;;;;;;;7.50;6.10;;;;;;;13.54;100.00;95922.38;4985558;28;20030;-68
2023/09/15 06:55:56;;;;;;;7.15;6.53;;;;;;;13.56;100.00;95918.59;4993619;28;20118;-68
2023/09/15 06:58:23;;;;;;;6.95;6.30;;;;;;;13.58;100.00;95918.44;4992781;28;20095;-68
2023/09/15 07:00:48;;;;;;;8.60;7.13;;;;;;;13.67;100.00;95919.31;4994249;28;20091;-68
2023/09/15 07:03:14;;;;;;;7.55;6.90;;;;;;;13.92;100.00;95917.66;4992885;28;20026;-68
2023/09/15 07:05:39;;;;;;;10.60;6.80;;;;;;;14.26;100.00;95916.81;4993310;28;20054;-68
2023/09/15 07:08:05;;;;;;;7.75;6.85;;;;;;;14.66;100.00;95905.66;4992209;28;20018;-68
2023/09/15 07:10:30;;;;;;;8.25;6.95;;;;;;;15.08;100.00;95898.66;4994219;28;20490;-68
2023/09/15 07:12:55;;;;;;;8.30;6.35;;;;;;;15.52;100.00;95894.81;5007302;28;20041;-68
2023/09/15 07:15:21;;;;;;;7.13;5.93;;;;;;;15.82;100.00;95895.91;4993416;28;20466;-68
2023/09/15 07:17:46;;;;;;;6.72;6.10;;;;;;;16.12;100.00;95896.19;4992218;28;20464;-69
2023/09/15 07:20:12;;;;;;;8.13;4.95;;;;;;;16.50;100.00;95903.50;4992781;28;20079;-69
2023/09/15 07:22:37;;;;;;;5.32;4.85;;;;;;;16.61;100.00;95908.41;4992357;28;20494;-69
2023/09/15 07:25:03;;;;;;;4.00;3.70;;;;;;;16.64;100.00;95933.00;4992411;28;20041;-69
2023/09/15 07:27:28;;;;;;;4.78;4.10;;;;;;;16.77;100.00;95957.19;4989237;28;20011;-69
2023/09/15 07:29:54;;;;;;;3.97;3.55;;;;;;;16.76;100.00;95969.63;4989289;28;20168;-69
2023/09/15 07:32:21;;;;;;;3.72;3.42;;;;;;;16.83;100.00;95976.94;4985596;28;20672;-69
2023/09/15 07:34:47;;;;;;;3.42;3.22;;;;;;;16.92;100.00;95993.69;4992402;28;20026;-69
2023/09/15 07:37:12;;;;;;;3.63;3.40;;;;;;;16.90;100.00;95994.66;4984477;28;20053;-69
2023/09/15 07:39:38;;;;;;;3.72;3.30;;;;;;;16.93;100.00;96012.09;4984953;28;20044;-69
2023/09/15 07:42:07;;;;;;;4.20;3.38;;;;;;;17.02;100.00;96024.41;4993009;28;20034;-69
2023/09/15 07:44:32;;;;;;;4.63;3.80;;;;;;;17.13;100.00;96031.16;4993207;28;20056;-69
2023/09/15 07:46:58;;;;;;;3.38;3.15;;;;;;;17.18;100.00;96033.28;4988836;28;20030;-69
2023/09/15 07:49:24;;;;;;;3.83;3.53;;;;;;;17.18;100.00;96049.25;4974570;28;20445;-69
2023/09/15 07:51:50;;;;;;;4.68;4.28;;;;;;;17.31;100.00;96053.97;4983547;28;20363;-69
2023/09/15 07:54:16;;;;;;;7.20;4.35;;;;;;;17.44;100.00;96064.06;4993403;28;20029;-70
2023/09/15 07:56:41;;;;;;;9.32;4.20;;;;;;;17.52;100.00;96068.50;4979290;28;20035;-69
2023/09/15 07:59:07;;;;;;;5.35;3.83;;;;;;;17.59;100.00;96056.97;4982265;28;20497;-69
2023/09/15 08:01:34;;;;;;;4.07;3.58;;;;;;;17.62;100.00;96071.78;4982340;28;20168;-69
2023/09/15 08:03:59;;;;;;;4.85;3.53;;;;;;;17.65;100.00;96084.72;4992890;28;20049;-69
2023/09/15 08:06:26;;;;;;;8.13;3.15;;;;;;;17.71;100.00;96093.84;4977671;28;20019;-69
2023/09/15 08:08:52;;;;;;;3.70;3.40;;;;;;;17.72;100.00;96122.13;4986660;28;20026;-69
2023/09/15 08:11:18;;;;;;;3.53;3.33;;;;;;;17.76;100.00;96112.78;4977320;28;20483;-69
2023/09/15 08:13:43;;;;;;;3.63;3.33;;;;;;;17.82;100.00;96111.25;4974284;28;20042;-70
2023/09/15 08:16:08;;;;;;;3.47;3.28;;;;;;;17.97;100.00;96122.75;4977443;28;20030;-69
2023/09/15 08:18:34;;;;;;;3.47;3.28;;;;;;;18.07;100.00;96132.41;4972689;28;20039;-69
2023/09/15 08:20:59;;;;;;;3.88;3.58;;;;;;;18.22;100.00;96132.44;4974322;28;20106;-69
2023/09/15 08:23:25;;;;;;;5.88;3.60;;;;;;;18.29;100.00;96142.22;4973869;28;20037;-69
2023/09/15 08:25:50;;;;;;;3.33;3.08;;;;;;;18.36;100.00;96149.47;4989928;28;20029;-70
2023/09/15 08:28:15;;;;;;;3.53;3.33;;;;;;;18.53;100.00;96153.66;4988328;28;20083;-70
2023/09/15 08:30:41;;;;;;;3.30;3.10;;;;;;;18.62;100.00;96154.41;4979936;28;20037;-69
2023/09/15 08:33:06;;;;;;;3.63;3.40;;;;;;;18.67;100.00;96153.84;4982748;28;20030;-69
2023/09/15 08:35:32;;;;;;;5.93;3.15;;;;;;;18.78;100.00;96153.44;4988759;28;20030;-69
2023/09/15 08:37:58;;;;;;;3.45;2.65;;;;;;;18.66;100.00;96146.88;4990760;28;20120;-69
2023/09/15 08:40:23;;;;;;;3.65;3.38;;;;;;;18.50;100.00;96148.69;4991203;28;20046;-69
2023/09/15 08:42:49;;;;;;;3.67;2.85;;;;;;;18.55;100.00;96153.47;4979765;28;20463;-69
2023/09/15 08:45:14;;;;;;;3.45;3.10;;;;;;;18.54;100.00;96155.31;4990815;28;20074;-69
2023/09/15 08:47:45;;;;;;;3.17;2.90;;;;;;;18.65;100.00;96162.06;4992189;28;20026;-68
2023/09/15 08:50:11;;;;;;;2.90;2.70;;;;;;;18.72;100.00;96151.50;4992440;28;20603;-69
2023/09/15 08:52:36;;;;;;;2.95;2.75;;;;;;;18.78;100.00;96161.44;4996604;28;20037;-69
2023/09/15 08:55:03;;;;;;;3.13;2.42;;;;;;;18.78;100.00;96158.75;4991653;28;20022;-69
2023/09/15 08:57:33;;;;;;;2.92;2.60;;;;;;;18.87;100.00;96156.84;4991612;28;20092;-69
2023/09/15 08:59:59;;;;;;;3.00;2.72;;;;;;;18.89;100.00;96157.47;4989838;28;20784;-69
2023/09/15 09:02:25;;;;;;;3.08;2.58;;;;;;;19.01;100.00;96161.41;4984149;28;20148;-69
2023/09/15 09:04:51;;;;;;;2.90;2.70;;;;;;;18.97;100.00;96157.38;4986553;28;20042;-69
2023/09/15 09:07:20;;;;;;;3.05;2.75;;;;;;;19.14;100.00;96157.25;4981860;28;20029;-68
2023/09/15 09:09:47;;;;;;;5.93;2.97;;;;;;;19.13;100.00;96147.56;4990254;28;20618;-69
2023/09/15 09:12:13;;;;;;;2.60;2.40;;;;;;;19.17;100.00;96163.03;4992188;28;20022;-68
2023/09/15 09:14:39;;;;;;;2.60;2.40;;;;;;;19.20;100.00;96148.47;4981458;28;20511;-69
2023/09/15 09:17:06;;;;;;;3.28;3.00;;;;;;;19.25;100.00;96161.28;4972927;28;20109;-69
2023/09/15 09:19:36;;;;;;;2.80;2.58;;;;;;;19.45;100.00;96161.53;4972906;28;20030;-69
2023/09/15 09:22:01;;;;;;;2.80;2.60;;;;;;;19.50;100.00;96153.81;4972514;28;20176;-69
2023/09/15 09:24:27;;;;;;;2.63;2.47;;;;;;;19.62;100.00;96140.78;4985196;28;20057;-68
2023/09/15 09:26:56;;;;;;;2.50;2.40;;;;;;;19.55;100.00;96139.88;4984963;28;20019;-68
2023/09/15 09:29:27;;;;;;;2.67;2.47;;;;;;;19.64;100.00;96143.25;4990523;28;20037;-69
2023/09/15 09:31:53;;;;;;;2.90;2.72;;;;;;;19.67;100.00;96130.38;4989737;28;20422;-69
2023/09/15 09:34:18;;;;;;;2.40;2.30;;;;;;;19.58;100.00;96102.13;4990797;28;20109;-69
2023/09/15 09:36:51;;;;;;;3.28;3.08;;;;;;;19.58;100.00;96105.63;4990205;28;20026;-69
2023/09/15 09:39:17;;;;;;;2.95;2.75;;;;;;;19.65;100.00;96112.88;4984546;28;20050;-69
2023/09/15 09:41:45;;;;;;;3.33;3.05;;;;;;;19.77;100.00;96106.03;4978159;28;20042;-69
2023/09/15 09:44:12;;;;;;;2.78;2.67;;;;;;;19.82;100.00;96110.81;4977926;28;20138;-69
2023/09/15 09:46:39;;;;;;;3.88;3.08;;;;;;;19.95;100.00;96110.13;4980681;28;20034;-69
2023/09/15 09:49:05;;;;;;;3.38;3.17;;;;;;;20.00;100.00;96103.19;4989811;28;20026;-69
2023/09/15 09:51:32;;;;;;;3.42;3.08;;;;;;;20.10;100.00;96100.19;4991563;28;20041;-68
2023/09/15 09:53:57;;;;;;;3.40;3.10;;;;;;;20.14;100.00;96111.31;4979087;28;20034;-68
2023/09/15 09:56:23;;;;;;;4.15;2.75;;;;;;;20.16;100.00;96112.81;4981830;28;20480;-68
2023/09/15 09:58:49;;;;;;;3.80;3.50;;;;;;;20.23;100.00;96106.69;4973865;28;20574;-69
2023/09/15 10:01:15;;;;;;;2.95;2.70;;;;;;;20.28;100.00;96102.41;4983650;28;20049;-69
2023/09/15 10:03:41;;;;;;;3.00;2.85;;;;;;;20.34;100.00;96106.16;4989871;28;20109;-69
2023/09/15 10:06:08;;;;;;;2.60;2.50;;;;;;;20.41;100.00;96095.50;4977786;28;20483;-68
2023/09/15 10:08:35;;;;;;;3.15;3.03;;;;;;;20.60;100.00;96100.16;4984627;28;20031;-68
2023/09/15 10:11:04;;;;;;;3.10;2.90;;;;;;;20.57;100.00;96092.53;4973783;28;20031;-69
2023/09/15 10:13:32;;;;;;;3.60;3.30;;;;;;;20.64;100.00;96095.25;4980756;28;20022;-69
2023/09/15 10:15:57;;;;;;;3.30;3.10;;;;;;;20.74;100.00;96089.56;4978216;28;20023;-68
2023/09/15 10:18:23;;;;;;;3.20;3.00;;;;;;;20.86;100.00;96087.19;4983261;28;20042;-69
2023/09/15 10:20:53;;;;;;;4.35;2.83;;;;;;;20.96;100.00;96092.19;4972808;28;20037;-69
2023/09/15 10:23:18;;;;;;;3.00;2.90;;;;;;;21.06;100.00;96089.97;4981437;28;20502;-69
2023/09/15 10:25:44;;;;;;;3.10;2.90;;;;;;;21.20;100.00;96082.00;4977238;28;20018;-69
2023/09/15 10:28:11;;;;;;;3.20;2.80;;;;;;;21.30;100.00;96080.59;4991258;28;20038;-69
2023/09/15 10:30:40;;;;;;;3.20;3.00;;;;;;;21.52;100.00;96066.25;4982899;28;20061;-69
2023/09/15 10:33:07;;;;;;;3.22;2.90;;;;;;;21.54;100.00;96066.84;4990947;28;20095;-69
2023/09/15 10:35:33;;;;;;;3.15;2.90;;;;;;;21.59;100.00;96061.75;4974885;28;20073;-69
2023/09/15 10:38:04;;;;;;;3.00;2.70;;;;;;;21.64;100.00;96043.19;4985467;28;20034;-68
2023/09/15 10:40:49;;;;;;;3.03;2.83;;;;;;;21.73;100.00;96058.06;4981271;28;20113;-69
2023/09/15 10:43:19;;;;;;;2.83;2.72;;;;;;;21.84;100.00;96063.88;4981697;28;20033;-69
2023/09/15 10:45:57;;;;;;;2.97;2.67;;;;;;;21.98;100.00;96064.72;4978209;28;20130;-69
2023/09/15 10:48:47;;;;;;;3.25;2.95;;;;;;;22.21;100.00;96056.25;4978753;28;20027;-69
2023/09/15 10:51:18;;;;;;;4.00;2.83;;;;;;;22.40;100.00;96043.03;4981833;28;20490;-69
2023/09/15 10:53:47;;;;;;;3.72;2.50;;;;;;;22.54;100.00;96036.66;4978073;28;20110;-69
2023/09/15 10:56:16;;;;;;;3.00;2.80;;;;;;;22.73;100.00;96040.31;4976089;28;20106;-69
2023/09/15 10:58:42;;;;;;;3.95;2.88;;;;;;;22.93;100.00;96042.13;4975866;28;20035;-69
2023/09/15 11:01:10;;;;;;;3.13;2.92;;;;;;;23.09;100.00;96016.66;4971332;28;20092;-70
2023/09/15 11:03:37;;;;;;;4.50;2.80;;;;;;;23.33;100.00;95998.22;4993917;28;20031;-69
2023/09/15 11:06:05;;;;;;;3.05;2.83;;;;;;;23.53;100.00;95981.97;4993793;28;20030;-69
2023/09/15 11:08:31;;;;;;;3.15;2.90;;;;;;;23.74;100.00;95979.94;4993873;28;20521;-68
2023/09/15 11:11:04;;;;;;;2.78;2.58;;;;;;;23.97;100.00;95955.13;4993804;28;20042;-69
2023/09/15 11:13:31;;;;;;;2.72;2.63;;;;;;;24.09;100.00;95970.59;4993925;28;20079;-69
2023/09/15 11:15:56;;;;;;;4.90;2.80;;;;;;;24.38;100.00;95941.34;4994360;28;20639;-69
2023/09/15 11:18:22;;;;;;;2.55;2.35;;;;;;;24.54;100.00;95942.63;4993644;28;20014;-69
2023/09/15 11:20:48;;;;;;;2.83;2.70;;;;;;;24.73;100.00;95938.84;4995568;28;20066;-69